Terminal Aerodrome Forecast
Issued by NWS South Bend, IN

Home | Current Version | Previous Version | Text Only | Print | Product List | Glossary Off
Versions: 1 2 3 4 5 6 7 8 9 10 11 12 13 14 15 16

000
FTUS43 KIWX 012300
TAFSBN
TAF
KSBN 012323Z 0200/0224 35006KT P6SM FEW250
     FM020100 VRB02KT P6SM BKN250
     FM021400 23007KT P6SM FEW050 SCT250=

USA.gov is the U.S. government's official web portal to all federal, state and local government web resources and services.